KTRM/TRM METAR and TAF weather

Enter ICAO airport designator
Station Type Date Time Source
KTRM METAR 2019/08/24 17:52 UTC NOAA

KTRM 241752Z AUTO 13010KT 10SM CLR 35/24 A2989 RMK AO2 SLP125 T03500239 10350 20283 51007 $


Station Type Date Time Source
KTRM Decoded METAR 2019/08/24 17:52 UTC NOAA

Station name not available
Aug 24, 2019 - 01:52 PM EDT / 2019.08.24 1752 UTC
Wind: from the SE (130 degrees) at 12 MPH (10 KT):0
Visibility: 10 mile(s):0
Sky conditions: clear
Temperature: 95.0 F (35.0 C)
Heat index: 106.7 F (41.5 C):1
Dew Point: 75.0 F (23.9 C)
Relative Humidity: 52%
Pressure (altimeter): 29.89 in. Hg (1012 hPa)
Pressure tendency: 0.02 inches (0.7 hPa) higher than three hours ago
ob: KTRM 241752Z AUTO 13010KT 10SM CLR 35/24 A2989 RMK AO2 SLP125 T03500239 10350 20283 51007
cycle: 18

Station Type Date Time Source
KTRM TAF 2019/08/24 18:42 UTC NOAA

TAF KTRM 241741Z 2418/2518 14010KT P6SM SKC
FM250300 14006KT P6SM SKC
FM251100 VRB04KT P6SM SCT050

Example: see airport list